sensor_id;sensor_type;location;lat;lon;timestamp;P1;durP1;ratioP1;P2;durP2;ratioP2
12878;SDS011;20617;49.476;10.986;2023-05-23T00:01:24;12.55;;;9.30;;
12878;SDS011;20617;49.476;10.986;2023-05-23T00:03:32;9.45;;;8.18;;
12878;SDS011;20617;49.476;10.986;2023-05-23T00:05:41;10.63;;;9.02;;
12878;SDS011;20617;49.476;10.986;2023-05-23T00:07:48;11.63;;;8.52;;
12878;SDS011;20617;49.476;10.986;2023-05-23T00:12:00;9.68;;;8.68;;
12878;SDS011;20617;49.476;10.986;2023-05-23T00:16:10;10.18;;;9.15;;
12878;SDS011;20617;49.476;10.986;2023-05-23T00:20:20;9.93;;;8.93;;
12878;SDS011;20617;49.476;10.986;2023-05-23T00:22:25;12.20;;;8.85;;
12878;SDS011;20617;49.476;10.986;2023-05-23T00:24:30;10.10;;;8.68;;
12878;SDS011;20617;49.476;10.986;2023-05-23T00:26:38;9.40;;;7.88;;
12878;SDS011;20617;49.476;10.986;2023-05-23T00:28:43;8.57;;;7.60;;
12878;SDS011;20617;49.476;10.986;2023-05-23T00:32:54;9.50;;;8.55;;
12878;SDS011;20617;49.476;10.986;2023-05-23T00:34:59;8.85;;;7.95;;
12878;SDS011;20617;49.476;10.986;2023-05-23T00:39:09;9.60;;;8.60;;
12878;SDS011;20617;49.476;10.986;2023-05-23T00:41:21;11.55;;;9.40;;
12878;SDS011;20617;49.476;10.986;2023-05-23T00:43:30;9.20;;;8.05;;
12878;SDS011;20617;49.476;10.986;2023-05-23T00:45:35;9.63;;;8.55;;
12878;SDS011;20617;49.476;10.986;2023-05-23T00:47:41;12.27;;;9.00;;
12878;SDS011;20617;49.476;10.986;2023-05-23T00:49:47;11.68;;;9.52;;
12878;SDS011;20617;49.476;10.986;2023-05-23T00:51:52;10.00;;;8.70;;
12878;SDS011;20617;49.476;10.986;2023-05-23T00:53:58;9.63;;;8.63;;
12878;SDS011;20617;49.476;10.986;2023-05-23T00:56:04;10.85;;;9.68;;
12878;SDS011;20617;49.476;10.986;2023-05-23T00:58:09;9.93;;;8.93;;
12878;SDS011;20617;49.476;10.986;2023-05-23T01:00:19;10.07;;;9.07;;
12878;SDS011;20617;49.476;10.986;2023-05-23T01:02:25;10.25;;;9.10;;
12878;SDS011;20617;49.476;10.986;2023-05-23T01:04:30;15.45;;;8.50;;
12878;SDS011;20617;49.476;10.986;2023-05-23T01:06:36;10.88;;;9.60;;
12878;SDS011;20617;49.476;10.986;2023-05-23T01:08:41;9.98;;;8.48;;
12878;SDS011;20617;49.476;10.986;2023-05-23T01:10:46;10.68;;;8.75;;
12878;SDS011;20617;49.476;10.986;2023-05-23T01:12:57;9.95;;;8.75;;
12878;SDS011;20617;49.476;10.986;2023-05-23T01:15:13;9.98;;;8.77;;
12878;SDS011;20617;49.476;10.986;2023-05-23T01:17:25;10.55;;;9.45;;
12878;SDS011;20617;49.476;10.986;2023-05-23T01:19:48;9.90;;;8.90;;
12878;SDS011;20617;49.476;10.986;2023-05-23T01:22:05;10.93;;;9.82;;
12878;SDS011;20617;49.476;10.986;2023-05-23T01:24:24;9.18;;;8.27;;
12878;SDS011;20617;49.476;10.986;2023-05-23T01:26:43;12.32;;;9.75;;
12878;SDS011;20617;49.476;10.986;2023-05-23T01:29:06;11.60;;;9.63;;
12878;SDS011;20617;49.476;10.986;2023-05-23T01:31:14;10.60;;;9.57;;
12878;SDS011;20617;49.476;10.986;2023-05-23T01:33:20;10.00;;;8.95;;
12878;SDS011;20617;49.476;10.986;2023-05-23T01:35:27;11.38;;;9.50;;
12878;SDS011;20617;49.476;10.986;2023-05-23T01:37:34;11.75;;;10.10;;
12878;SDS011;20617;49.476;10.986;2023-05-23T01:41:44;12.75;;;9.60;;
12878;SDS011;20617;49.476;10.986;2023-05-23T01:43:50;10.50;;;9.40;;
12878;SDS011;20617;49.476;10.986;2023-05-23T01:45:59;11.73;;;9.75;;
12878;SDS011;20617;49.476;10.986;2023-05-23T01:48:06;13.93;;;10.77;;
12878;SDS011;20617;49.476;10.986;2023-05-23T01:50:14;11.82;;;10.00;;
12878;SDS011;20617;49.476;10.986;2023-05-23T01:52:21;12.38;;;10.27;;
12878;SDS011;20617;49.476;10.986;2023-05-23T01:54:26;12.73;;;10.18;;
12878;SDS011;20617;49.476;10.986;2023-05-23T01:56:33;10.90;;;9.80;;
12878;SDS011;20617;49.476;10.986;2023-05-23T01:58:38;11.70;;;10.60;;
12878;SDS011;20617;49.476;10.986;2023-05-23T02:00:44;11.43;;;9.75;;
12878;SDS011;20617;49.476;10.986;2023-05-23T02:02:52;11.45;;;10.23;;
12878;SDS011;20617;49.476;10.986;2023-05-23T02:04:57;11.77;;;10.10;;
12878;SDS011;20617;49.476;10.986;2023-05-23T02:07:03;11.93;;;10.73;;
12878;SDS011;20617;49.476;10.986;2023-05-23T02:09:08;13.02;;;10.27;;
12878;SDS011;20617;49.476;10.986;2023-05-23T02:11:13;12.38;;;11.18;;
12878;SDS011;20617;49.476;10.986;2023-05-23T02:13:18;12.05;;;10.85;;
12878;SDS011;20617;49.476;10.986;2023-05-23T02:17:28;12.35;;;10.55;;
12878;SDS011;20617;49.476;10.986;2023-05-23T02:19:36;14.75;;;11.50;;
12878;SDS011;20617;49.476;10.986;2023-05-23T02:21:41;11.45;;;10.32;;
12878;SDS011;20617;49.476;10.986;2023-05-23T02:23:46;12.68;;;11.40;;
12878;SDS011;20617;49.476;10.986;2023-05-23T02:25:51;14.30;;;11.43;;
12878;SDS011;20617;49.476;10.986;2023-05-23T02:28:00;12.23;;;11.02;;
12878;SDS011;20617;49.476;10.986;2023-05-23T02:32:10;13.25;;;11.15;;
12878;SDS011;20617;49.476;10.986;2023-05-23T02:36:23;12.23;;;10.93;;
12878;SDS011;20617;49.476;10.986;2023-05-23T02:38:29;14.60;;;10.32;;
12878;SDS011;20617;49.476;10.986;2023-05-23T02:40:34;11.45;;;10.25;;
12878;SDS011;20617;49.476;10.986;2023-05-23T02:42:39;11.77;;;10.65;;
12878;SDS011;20617;49.476;10.986;2023-05-23T02:44:44;14.85;;;10.55;;
12878;SDS011;20617;49.476;10.986;2023-05-23T02:46:49;13.27;;;10.98;;
12878;SDS011;20617;49.476;10.986;2023-05-23T02:48:54;11.20;;;10.02;;
12878;SDS011;20617;49.476;10.986;2023-05-23T02:51:00;14.05;;;10.35;;
12878;SDS011;20617;49.476;10.986;2023-05-23T02:53:08;11.95;;;10.63;;
12878;SDS011;20617;49.476;10.986;2023-05-23T02:55:13;12.63;;;10.50;;
12878;SDS011;20617;49.476;10.986;2023-05-23T02:57:21;14.35;;;11.07;;
12878;SDS011;20617;49.476;10.986;2023-05-23T02:59:26;11.90;;;10.65;;
12878;SDS011;20617;49.476;10.986;2023-05-23T03:01:32;12.32;;;10.82;;
12878;SDS011;20617;49.476;10.986;2023-05-23T03:03:37;12.30;;;10.98;;
12878;SDS011;20617;49.476;10.986;2023-05-23T03:05:42;12.15;;;10.85;;
12878;SDS011;20617;49.476;10.986;2023-05-23T03:07:47;12.50;;;10.13;;
12878;SDS011;20617;49.476;10.986;2023-05-23T03:09:57;12.88;;;11.18;;
12878;SDS011;20617;49.476;10.986;2023-05-23T03:12:03;12.40;;;10.80;;
12878;SDS011;20617;49.476;10.986;2023-05-23T03:14:08;13.52;;;10.77;;
12878;SDS011;20617;49.476;10.986;2023-05-23T03:16:13;14.32;;;10.52;;
12878;SDS011;20617;49.476;10.986;2023-05-23T03:18:18;14.98;;;12.18;;
12878;SDS011;20617;49.476;10.986;2023-05-23T03:20:23;12.35;;;11.07;;
12878;SDS011;20617;49.476;10.986;2023-05-23T03:22:28;13.25;;;11.50;;
12878;SDS011;20617;49.476;10.986;2023-05-23T03:24:36;13.95;;;11.63;;
12878;SDS011;20617;49.476;10.986;2023-05-23T03:26:44;12.85;;;10.88;;
12878;SDS011;20617;49.476;10.986;2023-05-23T03:28:49;12.52;;;11.27;;
12878;SDS011;20617;49.476;10.986;2023-05-23T03:30:54;12.68;;;11.32;;
12878;SDS011;20617;49.476;10.986;2023-05-23T03:33:00;13.00;;;11.32;;
12878;SDS011;20617;49.476;10.986;2023-05-23T03:35:08;13.57;;;10.98;;
12878;SDS011;20617;49.476;10.986;2023-05-23T03:37:13;12.95;;;11.65;;
12878;SDS011;20617;49.476;10.986;2023-05-23T03:39:18;12.70;;;11.23;;
12878;SDS011;20617;49.476;10.986;2023-05-23T03:41:24;12.60;;;11.35;;
12878;SDS011;20617;49.476;10.986;2023-05-23T03:43:32;13.05;;;10.77;;
12878;SDS011;20617;49.476;10.986;2023-05-23T03:45:37;12.48;;;11.15;;
12878;SDS011;20617;49.476;10.986;2023-05-23T03:47:46;13.02;;;11.20;;
12878;SDS011;20617;49.476;10.986;2023-05-23T03:49:53;12.15;;;10.95;;
12878;SDS011;20617;49.476;10.986;2023-05-23T03:52:00;13.23;;;10.13;;
12878;SDS011;20617;49.476;10.986;2023-05-23T03:54:06;12.18;;;10.88;;
12878;SDS011;20617;49.476;10.986;2023-05-23T03:56:11;14.48;;;11.20;;
12878;SDS011;20617;49.476;10.986;2023-05-23T03:58:16;11.93;;;10.65;;
12878;SDS011;20617;49.476;10.986;2023-05-23T04:00:28;11.93;;;10.60;;
12878;SDS011;20617;49.476;10.986;2023-05-23T04:02:38;14.63;;;11.50;;
12878;SDS011;20617;49.476;10.986;2023-05-23T04:04:43;13.18;;;10.70;;
12878;SDS011;20617;49.476;10.986;2023-05-23T04:06:48;15.48;;;10.55;;
12878;SDS011;20617;49.476;10.986;2023-05-23T04:08:54;12.10;;;10.90;;
12878;SDS011;20617;49.476;10.986;2023-05-23T04:11:00;12.32;;;11.02;;
12878;SDS011;20617;49.476;10.986;2023-05-23T04:13:09;11.68;;;10.48;;
12878;SDS011;20617;49.476;10.986;2023-05-23T04:15:17;13.30;;;10.75;;
12878;SDS011;20617;49.476;10.986;2023-05-23T04:17:33;11.60;;;10.32;;
12878;SDS011;20617;49.476;10.986;2023-05-23T04:19:40;12.38;;;11.07;;
12878;SDS011;20617;49.476;10.986;2023-05-23T04:21:45;15.18;;;12.20;;
12878;SDS011;20617;49.476;10.986;2023-05-23T04:23:51;12.85;;;11.10;;
12878;SDS011;20617;49.476;10.986;2023-05-23T04:25:56;13.23;;;10.48;;
12878;SDS011;20617;49.476;10.986;2023-05-23T04:28:09;12.45;;;10.60;;
12878;SDS011;20617;49.476;10.986;2023-05-23T04:30:15;12.45;;;10.40;;
12878;SDS011;20617;49.476;10.986;2023-05-23T04:32:20;12.32;;;11.05;;
12878;SDS011;20617;49.476;10.986;2023-05-23T04:34:29;14.25;;;11.50;;
12878;SDS011;20617;49.476;10.986;2023-05-23T04:36:35;12.57;;;11.23;;
12878;SDS011;20617;49.476;10.986;2023-05-23T04:38:41;11.38;;;10.25;;
12878;SDS011;20617;49.476;10.986;2023-05-23T04:40:47;11.88;;;10.68;;
12878;SDS011;20617;49.476;10.986;2023-05-23T04:43:12;12.63;;;10.55;;
12878;SDS011;20617;49.476;10.986;2023-05-23T04:45:26;13.55;;;10.55;;
12878;SDS011;20617;49.476;10.986;2023-05-23T04:47:36;15.32;;;12.35;;
12878;SDS011;20617;49.476;10.986;2023-05-23T04:49:46;18.13;;;11.20;;
12878;SDS011;20617;49.476;10.986;2023-05-23T04:51:51;13.30;;;11.00;;
12878;SDS011;20617;49.476;10.986;2023-05-23T04:54:02;12.90;;;11.50;;
12878;SDS011;20617;49.476;10.986;2023-05-23T04:56:07;12.20;;;10.27;;
12878;SDS011;20617;49.476;10.986;2023-05-23T04:58:13;13.35;;;10.27;;
12878;SDS011;20617;49.476;10.986;2023-05-23T05:00:19;13.23;;;10.52;;
12878;SDS011;20617;49.476;10.986;2023-05-23T05:02:24;12.00;;;10.75;;
12878;SDS011;20617;49.476;10.986;2023-05-23T05:04:38;12.05;;;10.77;;
12878;SDS011;20617;49.476;10.986;2023-05-23T05:06:46;12.75;;;11.10;;
12878;SDS011;20617;49.476;10.986;2023-05-23T05:08:53;12.95;;;10.50;;
12878;SDS011;20617;49.476;10.986;2023-05-23T05:10:58;16.38;;;10.85;;
12878;SDS011;20617;49.476;10.986;2023-05-23T05:15:17;13.27;;;10.88;;
12878;SDS011;20617;49.476;10.986;2023-05-23T05:17:27;13.75;;;11.27;;
12878;SDS011;20617;49.476;10.986;2023-05-23T05:19:41;13.10;;;11.65;;
12878;SDS011;20617;49.476;10.986;2023-05-23T05:23:53;11.80;;;10.52;;
12878;SDS011;20617;49.476;10.986;2023-05-23T05:26:00;12.55;;;11.23;;
12878;SDS011;20617;49.476;10.986;2023-05-23T05:28:06;13.45;;;10.70;;
12878;SDS011;20617;49.476;10.986;2023-05-23T05:30:24;12.95;;;11.55;;
12878;SDS011;20617;49.476;10.986;2023-05-23T05:32:33;12.88;;;11.43;;
12878;SDS011;20617;49.476;10.986;2023-05-23T05:34:38;14.38;;;11.20;;
12878;SDS011;20617;49.476;10.986;2023-05-23T05:36:44;12.95;;;11.48;;
12878;SDS011;20617;49.476;10.986;2023-05-23T05:38:54;12.90;;;11.43;;
12878;SDS011;20617;49.476;10.986;2023-05-23T05:40:59;13.25;;;10.88;;
12878;SDS011;20617;49.476;10.986;2023-05-23T05:43:08;14.35;;;10.27;;
12878;SDS011;20617;49.476;10.986;2023-05-23T05:45:15;11.77;;;10.43;;
12878;SDS011;20617;49.476;10.986;2023-05-23T05:47:22;12.82;;;10.57;;
12878;SDS011;20617;49.476;10.986;2023-05-23T05:49:27;15.65;;;11.50;;
12878;SDS011;20617;49.476;10.986;2023-05-23T05:53:37;12.98;;;11.27;;
12878;SDS011;20617;49.476;10.986;2023-05-23T05:55:44;11.65;;;10.45;;
12878;SDS011;20617;49.476;10.986;2023-05-23T05:57:50;11.85;;;10.48;;
12878;SDS011;20617;49.476;10.986;2023-05-23T05:59:56;11.32;;;10.05;;
12878;SDS011;20617;49.476;10.986;2023-05-23T06:02:04;12.52;;;11.27;;
12878;SDS011;20617;49.476;10.986;2023-05-23T06:06:15;11.32;;;10.00;;
12878;SDS011;20617;49.476;10.986;2023-05-23T06:08:21;13.85;;;11.57;;
12878;SDS011;20617;49.476;10.986;2023-05-23T06:10:26;10.85;;;9.75;;
12878;SDS011;20617;49.476;10.986;2023-05-23T06:12:34;11.88;;;10.23;;
12878;SDS011;20617;49.476;10.986;2023-05-23T06:14:39;11.10;;;10.00;;
12878;SDS011;20617;49.476;10.986;2023-05-23T06:16:45;12.70;;;11.40;;
12878;SDS011;20617;49.476;10.986;2023-05-23T06:18:50;12.77;;;11.10;;
12878;SDS011;20617;49.476;10.986;2023-05-23T06:20:58;11.30;;;9.77;;
12878;SDS011;20617;49.476;10.986;2023-05-23T06:23:03;12.38;;;10.77;;
12878;SDS011;20617;49.476;10.986;2023-05-23T06:25:09;12.05;;;10.45;;
12878;SDS011;20617;49.476;10.986;2023-05-23T06:27:14;12.23;;;11.02;;
12878;SDS011;20617;49.476;10.986;2023-05-23T06:29:23;11.38;;;10.18;;
12878;SDS011;20617;49.476;10.986;2023-05-23T06:31:29;12.05;;;10.75;;
12878;SDS011;20617;49.476;10.986;2023-05-23T06:33:34;12.15;;;10.45;;
12878;SDS011;20617;49.476;10.986;2023-05-23T06:35:39;12.85;;;9.48;;
12878;SDS011;20617;49.476;10.986;2023-05-23T06:37:44;11.20;;;10.07;;
12878;SDS011;20617;49.476;10.986;2023-05-23T06:39:49;9.95;;;8.95;;
12878;SDS011;20617;49.476;10.986;2023-05-23T06:41:55;9.60;;;8.55;;
12878;SDS011;20617;49.476;10.986;2023-05-23T06:44:12;9.95;;;8.95;;
12878;SDS011;20617;49.476;10.986;2023-05-23T06:46:21;13.40;;;10.63;;
12878;SDS011;20617;49.476;10.986;2023-05-23T06:48:26;12.85;;;11.15;;
12878;SDS011;20617;49.476;10.986;2023-05-23T06:50:32;10.88;;;9.43;;
12878;SDS011;20617;49.476;10.986;2023-05-23T06:52:38;9.68;;;8.68;;
12878;SDS011;20617;49.476;10.986;2023-05-23T06:54:44;11.45;;;9.98;;
12878;SDS011;20617;49.476;10.986;2023-05-23T06:56:48;15.05;;;11.18;;
12878;SDS011;20617;49.476;10.986;2023-05-23T06:58:54;12.82;;;11.43;;
12878;SDS011;20617;49.476;10.986;2023-05-23T07:01:00;12.30;;;9.63;;
12878;SDS011;20617;49.476;10.986;2023-05-23T07:03:15;9.88;;;8.68;;
12878;SDS011;20617;49.476;10.986;2023-05-23T07:05:20;11.07;;;9.70;;
12878;SDS011;20617;49.476;10.986;2023-05-23T07:07:25;10.07;;;9.05;;
12878;SDS011;20617;49.476;10.986;2023-05-23T07:11:43;13.52;;;10.75;;
12878;SDS011;20617;49.476;10.986;2023-05-23T07:13:49;11.02;;;9.90;;
12878;SDS011;20617;49.476;10.986;2023-05-23T07:16:03;13.23;;;9.83;;
12878;SDS011;20617;49.476;10.986;2023-05-23T07:18:19;10.68;;;9.57;;
12878;SDS011;20617;49.476;10.986;2023-05-23T07:20:25;11.10;;;9.38;;
12878;SDS011;20617;49.476;10.986;2023-05-23T07:22:37;10.10;;;9.15;;
12878;SDS011;20617;49.476;10.986;2023-05-23T07:24:42;12.25;;;10.35;;
12878;SDS011;20617;49.476;10.986;2023-05-23T07:26:48;12.20;;;10.45;;
12878;SDS011;20617;49.476;10.986;2023-05-23T07:28:56;10.85;;;9.65;;
12878;SDS011;20617;49.476;10.986;2023-05-23T07:31:02;10.70;;;9.60;;
12878;SDS011;20617;49.476;10.986;2023-05-23T07:33:08;9.48;;;8.52;;
12878;SDS011;20617;49.476;10.986;2023-05-23T07:35:19;10.70;;;9.27;;
12878;SDS011;20617;49.476;10.986;2023-05-23T07:37:27;11.52;;;10.30;;
12878;SDS011;20617;49.476;10.986;2023-05-23T07:41:38;10.73;;;9.63;;
12878;SDS011;20617;49.476;10.986;2023-05-23T07:43:43;11.35;;;10.25;;
12878;SDS011;20617;49.476;10.986;2023-05-23T07:45:48;11.27;;;10.05;;
12878;SDS011;20617;49.476;10.986;2023-05-23T07:47:53;12.48;;;11.18;;
12878;SDS011;20617;49.476;10.986;2023-05-23T07:49:59;11.60;;;10.40;;
12878;SDS011;20617;49.476;10.986;2023-05-23T07:52:07;11.82;;;10.63;;
12878;SDS011;20617;49.476;10.986;2023-05-23T07:54:12;13.93;;;11.52;;
12878;SDS011;20617;49.476;10.986;2023-05-23T07:56:18;10.45;;;9.40;;
12878;SDS011;20617;49.476;10.986;2023-05-23T07:58:24;12.10;;;10.80;;
12878;SDS011;20617;49.476;10.986;2023-05-23T08:02:42;12.65;;;10.55;;
12878;SDS011;20617;49.476;10.986;2023-05-23T08:04:54;11.85;;;9.77;;
12878;SDS011;20617;49.476;10.986;2023-05-23T08:07:00;11.40;;;10.25;;
12878;SDS011;20617;49.476;10.986;2023-05-23T08:09:19;11.07;;;9.95;;
12878;SDS011;20617;49.476;10.986;2023-05-23T08:11:28;11.95;;;9.68;;
12878;SDS011;20617;49.476;10.986;2023-05-23T08:13:33;11.95;;;9.27;;
12878;SDS011;20617;49.476;10.986;2023-05-23T08:15:57;10.40;;;9.40;;
12878;SDS011;20617;49.476;10.986;2023-05-23T08:18:06;9.60;;;8.68;;
12878;SDS011;20617;49.476;10.986;2023-05-23T08:20:12;9.77;;;8.77;;
12878;SDS011;20617;49.476;10.986;2023-05-23T08:22:19;10.43;;;8.07;;
12878;SDS011;20617;49.476;10.986;2023-05-23T08:24:26;11.38;;;10.18;;
12878;SDS011;20617;49.476;10.986;2023-05-23T08:26:32;11.27;;;9.85;;
12878;SDS011;20617;49.476;10.986;2023-05-23T08:28:40;11.63;;;8.70;;
12878;SDS011;20617;49.476;10.986;2023-05-23T08:32:50;11.20;;;8.75;;
12878;SDS011;20617;49.476;10.986;2023-05-23T08:34:58;11.65;;;8.63;;
12878;SDS011;20617;49.476;10.986;2023-05-23T08:37:04;9.40;;;8.50;;
12878;SDS011;20617;49.476;10.986;2023-05-23T08:39:09;12.68;;;7.80;;
12878;SDS011;20617;49.476;10.986;2023-05-23T08:41:28;9.23;;;8.32;;
12878;SDS011;20617;49.476;10.986;2023-05-23T08:43:41;8.65;;;6.93;;
12878;SDS011;20617;49.476;10.986;2023-05-23T08:45:52;9.88;;;7.90;;
12878;SDS011;20617;49.476;10.986;2023-05-23T08:48:03;10.68;;;8.00;;
12878;SDS011;20617;49.476;10.986;2023-05-23T08:50:16;8.88;;;7.95;;
12878;SDS011;20617;49.476;10.986;2023-05-23T08:52:24;10.55;;;8.25;;
12878;SDS011;20617;49.476;10.986;2023-05-23T08:54:34;11.18;;;8.00;;
12878;SDS011;20617;49.476;10.986;2023-05-23T08:56:42;9.93;;;7.80;;
12878;SDS011;20617;49.476;10.986;2023-05-23T08:58:49;8.90;;;8.00;;
12878;SDS011;20617;49.476;10.986;2023-05-23T09:00:55;10.32;;;8.38;;
12878;SDS011;20617;49.476;10.986;2023-05-23T09:03:01;12.20;;;7.72;;
12878;SDS011;20617;49.476;10.986;2023-05-23T09:05:28;11.10;;;7.47;;
12878;SDS011;20617;49.476;10.986;2023-05-23T09:07:34;9.82;;;7.47;;
12878;SDS011;20617;49.476;10.986;2023-05-23T09:09:39;8.38;;;7.28;;
12878;SDS011;20617;49.476;10.986;2023-05-23T09:11:50;10.45;;;8.88;;
12878;SDS011;20617;49.476;10.986;2023-05-23T09:13:56;7.95;;;7.15;;
12878;SDS011;20617;49.476;10.986;2023-05-23T09:16:02;8.68;;;7.72;;
12878;SDS011;20617;49.476;10.986;2023-05-23T09:18:13;14.98;;;8.07;;
12878;SDS011;20617;49.476;10.986;2023-05-23T09:22:30;9.43;;;7.30;;
12878;SDS011;20617;49.476;10.986;2023-05-23T09:24:40;10.73;;;8.40;;
12878;SDS011;20617;49.476;10.986;2023-05-23T09:26:45;9.32;;;7.65;;
12878;SDS011;20617;49.476;10.986;2023-05-23T09:28:55;13.38;;;8.82;;
12878;SDS011;20617;49.476;10.986;2023-05-23T09:31:01;9.95;;;8.85;;
12878;SDS011;20617;49.476;10.986;2023-05-23T09:33:08;14.73;;;8.63;;
12878;SDS011;20617;49.476;10.986;2023-05-23T09:35:14;10.38;;;8.50;;
12878;SDS011;20617;49.476;10.986;2023-05-23T09:39:25;13.13;;;8.43;;
12878;SDS011;20617;49.476;10.986;2023-05-23T09:43:37;8.93;;;7.53;;
12878;SDS011;20617;49.476;10.986;2023-05-23T09:45:45;11.73;;;7.70;;
12878;SDS011;20617;49.476;10.986;2023-05-23T09:47:51;9.90;;;7.65;;
12878;SDS011;20617;49.476;10.986;2023-05-23T09:49:59;9.02;;;7.07;;
12878;SDS011;20617;49.476;10.986;2023-05-23T09:52:07;11.05;;;7.45;;
12878;SDS011;20617;49.476;10.986;2023-05-23T09:54:13;10.32;;;7.97;;
12878;SDS011;20617;49.476;10.986;2023-05-23T09:58:24;10.30;;;7.53;;
12878;SDS011;20617;49.476;10.986;2023-05-23T10:00:31;8.48;;;7.57;;
12878;SDS011;20617;49.476;10.986;2023-05-23T10:04:57;7.22;;;6.53;;
12878;SDS011;20617;49.476;10.986;2023-05-23T10:07:04;7.28;;;6.50;;
12878;SDS011;20617;49.476;10.986;2023-05-23T10:09:18;7.95;;;6.40;;
12878;SDS011;20617;49.476;10.986;2023-05-23T10:14:08;7.82;;;6.45;;
12878;SDS011;20617;49.476;10.986;2023-05-23T10:16:15;6.78;;;6.05;;
12878;SDS011;20617;49.476;10.986;2023-05-23T10:18:28;6.97;;;5.57;;
12878;SDS011;20617;49.476;10.986;2023-05-23T10:20:38;6.68;;;5.93;;
12878;SDS011;20617;49.476;10.986;2023-05-23T10:22:46;7.95;;;6.53;;
12878;SDS011;20617;49.476;10.986;2023-05-23T10:24:53;14.95;;;6.35;;
12878;SDS011;20617;49.476;10.986;2023-05-23T10:26:59;9.10;;;5.40;;
12878;SDS011;20617;49.476;10.986;2023-05-23T10:29:05;8.15;;;5.45;;
12878;SDS011;20617;49.476;10.986;2023-05-23T10:31:10;7.15;;;5.15;;
12878;SDS011;20617;49.476;10.986;2023-05-23T10:33:16;8.52;;;5.30;;
12878;SDS011;20617;49.476;10.986;2023-05-23T10:35:28;6.28;;;5.32;;
12878;SDS011;20617;49.476;10.986;2023-05-23T10:37:44;5.57;;;4.65;;
12878;SDS011;20617;49.476;10.986;2023-05-23T10:39:56;7.80;;;4.78;;
12878;SDS011;20617;49.476;10.986;2023-05-23T10:42:10;6.53;;;4.75;;
12878;SDS011;20617;49.476;10.986;2023-05-23T10:44:24;8.65;;;5.25;;
12878;SDS011;20617;49.476;10.986;2023-05-23T10:46:48;5.72;;;4.63;;
12878;SDS011;20617;49.476;10.986;2023-05-23T10:48:55;9.55;;;5.25;;
12878;SDS011;20617;49.476;10.986;2023-05-23T10:51:05;6.05;;;4.53;;
12878;SDS011;20617;49.476;10.986;2023-05-23T10:53:11;4.97;;;4.47;;
12878;SDS011;20617;49.476;10.986;2023-05-23T10:55:20;8.00;;;4.97;;
12878;SDS011;20617;49.476;10.986;2023-05-23T10:57:25;8.27;;;4.35;;
12878;SDS011;20617;49.476;10.986;2023-05-23T10:59:31;6.07;;;4.63;;
12878;SDS011;20617;49.476;10.986;2023-05-23T11:01:38;5.90;;;5.03;;
12878;SDS011;20617;49.476;10.986;2023-05-23T11:03:48;5.20;;;4.20;;
12878;SDS011;20617;49.476;10.986;2023-05-23T11:06:29;6.10;;;4.95;;
12878;SDS011;20617;49.476;10.986;2023-05-23T11:08:36;5.82;;;4.32;;
12878;SDS011;20617;49.476;10.986;2023-05-23T11:10:53;7.88;;;3.88;;
12878;SDS011;20617;49.476;10.986;2023-05-23T11:13:04;5.30;;;3.88;;
12878;SDS011;20617;49.476;10.986;2023-05-23T11:15:20;6.03;;;3.85;;
12878;SDS011;20617;49.476;10.986;2023-05-23T11:17:29;5.57;;;4.70;;
12878;SDS011;20617;49.476;10.986;2023-05-23T11:19:35;5.05;;;4.32;;
12878;SDS011;20617;49.476;10.986;2023-05-23T11:21:44;6.82;;;4.47;;
12878;SDS011;20617;49.476;10.986;2023-05-23T11:23:52;5.88;;;4.25;;
12878;SDS011;20617;49.476;10.986;2023-05-23T11:25:58;7.45;;;3.92;;
12878;SDS011;20617;49.476;10.986;2023-05-23T11:30:08;5.05;;;4.10;;
12878;SDS011;20617;49.476;10.986;2023-05-23T11:32:17;3.95;;;3.38;;
12878;SDS011;20617;49.476;10.986;2023-05-23T11:34:24;3.92;;;3.50;;
12878;SDS011;20617;49.476;10.986;2023-05-23T11:36:29;4.05;;;3.30;;
12878;SDS011;20617;49.476;10.986;2023-05-23T11:40:44;4.95;;;3.63;;
12878;SDS011;20617;49.476;10.986;2023-05-23T11:42:49;3.78;;;3.28;;
12878;SDS011;20617;49.476;10.986;2023-05-23T11:44:54;4.88;;;3.85;;
12878;SDS011;20617;49.476;10.986;2023-05-23T11:47:00;4.63;;;3.38;;
12878;SDS011;20617;49.476;10.986;2023-05-23T11:49:10;3.78;;;3.05;;
12878;SDS011;20617;49.476;10.986;2023-05-23T11:51:15;4.45;;;2.90;;
12878;SDS011;20617;49.476;10.986;2023-05-23T11:53:22;3.53;;;3.22;;
12878;SDS011;20617;49.476;10.986;2023-05-23T11:55:33;3.53;;;2.90;;
12878;SDS011;20617;49.476;10.986;2023-05-23T11:57:38;3.90;;;3.28;;
12878;SDS011;20617;49.476;10.986;2023-05-23T11:59:47;3.90;;;2.72;;
12878;SDS011;20617;49.476;10.986;2023-05-23T12:01:55;4.63;;;3.10;;
12878;SDS011;20617;49.476;10.986;2023-05-23T12:06:13;3.35;;;2.40;;
12878;SDS011;20617;49.476;10.986;2023-05-23T12:08:19;5.40;;;2.85;;
12878;SDS011;20617;49.476;10.986;2023-05-23T12:10:25;3.55;;;2.65;;
12878;SDS011;20617;49.476;10.986;2023-05-23T12:12:34;2.90;;;2.63;;
12878;SDS011;20617;49.476;10.986;2023-05-23T12:14:40;3.15;;;2.40;;
12878;SDS011;20617;49.476;10.986;2023-05-23T12:16:46;3.60;;;2.65;;
12878;SDS011;20617;49.476;10.986;2023-05-23T12:18:51;2.63;;;2.42;;
12878;SDS011;20617;49.476;10.986;2023-05-23T12:20:58;2.40;;;2.20;;
12878;SDS011;20617;49.476;10.986;2023-05-23T12:23:06;4.57;;;2.40;;
12878;SDS011;20617;49.476;10.986;2023-05-23T12:27:16;4.70;;;2.88;;
12878;SDS011;20617;49.476;10.986;2023-05-23T12:29:30;2.92;;;2.63;;
12878;SDS011;20617;49.476;10.986;2023-05-23T12:31:36;3.20;;;2.80;;
12878;SDS011;20617;49.476;10.986;2023-05-23T12:35:49;2.80;;;2.50;;
12878;SDS011;20617;49.476;10.986;2023-05-23T12:37:55;2.70;;;2.50;;
12878;SDS011;20617;49.476;10.986;2023-05-23T12:40:10;2.33;;;2.13;;
12878;SDS011;20617;49.476;10.986;2023-05-23T12:42:16;3.08;;;2.42;;
12878;SDS011;20617;49.476;10.986;2023-05-23T12:44:21;2.60;;;2.00;;
12878;SDS011;20617;49.476;10.986;2023-05-23T12:48:33;3.65;;;3.00;;
12878;SDS011;20617;49.476;10.986;2023-05-23T12:52:43;3.50;;;2.72;;
12878;SDS011;20617;49.476;10.986;2023-05-23T12:54:48;4.97;;;2.80;;
12878;SDS011;20617;49.476;10.986;2023-05-23T12:56:53;3.80;;;2.85;;
12878;SDS011;20617;49.476;10.986;2023-05-23T12:58:58;5.93;;;3.38;;
12878;SDS011;20617;49.476;10.986;2023-05-23T13:01:03;6.07;;;2.80;;
12878;SDS011;20617;49.476;10.986;2023-05-23T13:03:11;4.25;;;3.30;;
12878;SDS011;20617;49.476;10.986;2023-05-23T13:05:16;6.25;;;3.28;;
12878;SDS011;20617;49.476;10.986;2023-05-23T13:07:23;3.40;;;2.90;;
12878;SDS011;20617;49.476;10.986;2023-05-23T13:11:32;7.10;;;2.63;;
12878;SDS011;20617;49.476;10.986;2023-05-23T13:13:38;4.43;;;2.58;;
12878;SDS011;20617;49.476;10.986;2023-05-23T13:17:51;4.40;;;2.42;;
12878;SDS011;20617;49.476;10.986;2023-05-23T13:19:58;3.92;;;2.50;;
12878;SDS011;20617;49.476;10.986;2023-05-23T13:22:06;2.70;;;2.20;;
12878;SDS011;20617;49.476;10.986;2023-05-23T13:24:11;4.30;;;2.58;;
12878;SDS011;20617;49.476;10.986;2023-05-23T13:26:17;3.03;;;2.38;;
12878;SDS011;20617;49.476;10.986;2023-05-23T13:28:22;4.90;;;2.47;;
12878;SDS011;20617;49.476;10.986;2023-05-23T13:30:28;3.35;;;2.88;;
12878;SDS011;20617;49.476;10.986;2023-05-23T13:32:33;7.65;;;2.90;;
12878;SDS011;20617;49.476;10.986;2023-05-23T13:34:38;3.53;;;2.63;;